createdAt,value
2022-12-13T00:00:47.231Z,99015.41
2022-12-13T00:03:18.800Z,99008.50
2022-12-13T00:05:50.392Z,99010.19
2022-12-13T00:08:22.003Z,99004.28
2022-12-13T00:11:06.232Z,99009.88
2022-12-13T00:13:37.879Z,99008.41
2022-12-13T00:16:18.735Z,98997.47
2022-12-13T00:18:55.891Z,99005.41
2022-12-13T00:21:30.449Z,99013.97
2022-12-13T00:24:02.390Z,98999.16
2022-12-13T00:26:34.354Z,98999.00
2022-12-13T00:29:07.274Z,99002.41
2022-12-13T00:34:30.797Z,99008.41
2022-12-13T00:37:02.343Z,99002.47
2022-12-13T00:39:36.854Z,99001.56
2022-12-13T00:42:08.464Z,99007.72
2022-12-13T00:44:39.981Z,99002.63
2022-12-13T00:47:11.556Z,99001.81
2022-12-13T00:49:43.145Z,99004.50
2022-12-13T00:52:17.059Z,99008.25
2022-12-13T00:54:48.727Z,99011.72
2022-12-13T00:57:21.223Z,99011.72
2022-12-13T00:59:52.997Z,99010.97
2022-12-13T01:02:24.542Z,99013.56
2022-12-13T01:04:56.075Z,99013.63
2022-12-13T01:07:29.064Z,99007.75
2022-12-13T01:10:00.953Z,99001.19
2022-12-13T01:12:33.174Z,99014.31
2022-12-13T01:15:06.895Z,99007.66
2022-12-13T01:17:41.387Z,99017.38
2022-12-13T01:20:13.105Z,99011.16
2022-12-13T01:22:44.651Z,99012.97
2022-12-13T01:25:19.341Z,99006.97
2022-12-13T01:27:50.785Z,99001.94
2022-12-13T01:30:22.337Z,99006.97
2022-12-13T01:32:53.944Z,99002.00
2022-12-13T01:35:25.493Z,99003.00
2022-12-13T01:37:58.294Z,99007.41
2022-12-13T01:40:32.169Z,99010.06
2022-12-13T01:43:14.784Z,98995.38
2022-12-13T01:45:46.685Z,98998.84
2022-12-13T01:48:26.213Z,98994.59
2022-12-13T01:51:07.008Z,98999.84
2022-12-13T01:53:42.634Z,99004.25
2022-12-13T01:56:20.032Z,98994.88
2022-12-13T01:58:54.832Z,99013.16
2022-12-13T02:01:28.280Z,99006.41
2022-12-13T02:03:59.989Z,99009.03
2022-12-13T02:06:35.898Z,99015.28
2022-12-13T02:09:08.932Z,99011.03
2022-12-13T02:11:43.638Z,99010.38
2022-12-13T02:14:15.125Z,99010.44
2022-12-13T02:16:58.183Z,99011.44
2022-12-13T02:19:56.608Z,99005.53
2022-12-13T02:23:02.048Z,99010.59
2022-12-13T02:26:03.588Z,99004.72
2022-12-13T02:28:47.041Z,99009.09
2022-12-13T02:31:43.935Z,99010.78
2022-12-13T02:34:24.519Z,99016.09
2022-12-13T02:37:18.122Z,99017.84
2022-12-13T02:39:58.568Z,99013.59
2022-12-13T02:42:41.910Z,99015.25
2022-12-13T02:45:37.951Z,99006.78
2022-12-13T02:48:12.292Z,99012.16
2022-12-13T02:50:46.044Z,99009.66
2022-12-13T02:53:19.285Z,99002.19
2022-12-13T02:55:50.824Z,99005.00
2022-12-13T02:58:29.319Z,98998.19
2022-12-13T03:01:28.950Z,98994.03
2022-12-13T03:04:22.180Z,98998.41
2022-12-13T03:07:25.843Z,98992.59
2022-12-13T03:10:06.508Z,98995.25
2022-12-13T03:13:27.051Z,98989.25
2022-12-13T03:16:08.611Z,98979.97
2022-12-13T03:18:41.638Z,98985.88
2022-12-13T03:21:13.613Z,98982.47
2022-12-13T03:23:47.383Z,98988.53
2022-12-13T03:26:22.404Z,98982.69
2022-12-13T03:28:54.468Z,98988.84
2022-12-13T03:31:27.605Z,98981.13
2022-12-13T03:33:59.366Z,98983.75
2022-12-13T03:36:31.198Z,98981.25
2022-12-13T03:39:05.521Z,98975.28
2022-12-13T03:41:37.196Z,98969.53
2022-12-13T03:44:08.795Z,98963.66
2022-12-13T03:46:40.494Z,98962.81
2022-12-13T03:49:16.817Z,98970.94
2022-12-13T03:51:49.078Z,98968.50
2022-12-13T03:54:24.277Z,98967.69
2022-12-13T03:56:55.945Z,98962.44
2022-12-13T03:59:27.812Z,98976.13
2022-12-13T04:01:59.648Z,98966.84
2022-12-13T04:04:31.426Z,98970.31
2022-12-13T04:07:03.133Z,98971.31
2022-12-13T04:09:34.715Z,98975.53
2022-12-13T04:12:28.604Z,98980.84
2022-12-13T04:15:00.170Z,98975.78
2022-12-13T04:17:31.792Z,98968.91
2022-12-13T04:20:04.053Z,98962.84
2022-12-13T04:22:35.753Z,98962.75
2022-12-13T04:25:08.011Z,98956.88
2022-12-13T04:27:40.115Z,98968.00
2022-12-13T04:30:13.072Z,98961.41
2022-12-13T04:32:46.801Z,98959.75
2022-12-13T04:35:18.583Z,98961.56
2022-12-13T04:37:50.998Z,98959.88
2022-12-13T04:40:24.174Z,98958.22
2022-12-13T04:42:55.936Z,98954.16
2022-12-13T04:45:27.753Z,98955.19
2022-12-13T04:48:02.315Z,98962.97
2022-12-13T04:50:34.060Z,98959.63
2022-12-13T04:53:05.693Z,98960.47
2022-12-13T04:55:37.270Z,98951.84
2022-12-13T04:58:08.831Z,98948.50
2022-12-13T05:00:41.007Z,98953.81
2022-12-13T05:03:16.203Z,98958.84
2022-12-13T05:05:50.353Z,98952.09
2022-12-13T05:08:22.353Z,98952.16
2022-12-13T05:10:54.674Z,98942.78
2022-12-13T05:13:26.583Z,98948.22
2022-12-13T05:16:06.173Z,98951.09
2022-12-13T05:18:38.743Z,98946.19
2022-12-13T05:21:12.181Z,98946.47
2022-12-13T05:23:43.760Z,98951.53
2022-12-13T05:26:15.385Z,98947.25
2022-12-13T05:28:49.133Z,98941.69
2022-12-13T05:31:24.197Z,98940.88
2022-12-13T05:34:01.508Z,98948.78
2022-12-13T05:36:33.354Z,98944.84
2022-12-13T05:39:04.983Z,98950.09
2022-12-13T05:41:37.192Z,98950.75
2022-12-13T05:44:10.507Z,98946.22
2022-12-13T05:46:42.094Z,98954.53
2022-12-13T05:49:13.739Z,98948.38
2022-12-13T05:51:45.321Z,98948.44
2022-12-13T05:54:16.944Z,98953.72
2022-12-13T05:56:48.587Z,98956.28
2022-12-13T05:59:20.200Z,98957.94
2022-12-13T06:01:51.916Z,98961.66
2022-12-13T06:04:23.787Z,98958.00
2022-12-13T06:06:55.534Z,98964.53
2022-12-13T06:09:27.124Z,98960.97
2022-12-13T06:12:01.003Z,98959.34
2022-12-13T06:14:33.261Z,98960.91
2022-12-13T06:17:09.858Z,98952.34
2022-12-13T06:19:41.702Z,98964.19
2022-12-13T06:22:14.553Z,98956.38
2022-12-13T06:24:46.545Z,98960.13
2022-12-13T06:27:18.209Z,98957.84
2022-12-13T06:29:49.863Z,98963.25
2022-12-13T06:32:21.426Z,98959.50
2022-12-13T06:34:53.010Z,98958.78
2022-12-13T06:37:28.476Z,98970.19
2022-12-13T06:40:00.206Z,98969.06
2022-12-13T06:42:32.062Z,98965.31
2022-12-13T06:45:04.872Z,98981.28
2022-12-13T06:47:38.751Z,98971.78
2022-12-13T06:50:13.173Z,98986.91
2022-12-13T06:52:46.575Z,98979.03
2022-12-13T06:55:23.883Z,98973.69
2022-12-13T06:57:58.415Z,98978.63
2022-12-13T07:00:36.897Z,98974.22
2022-12-13T07:03:12.674Z,98978.47
2022-12-13T07:05:45.165Z,98975.78
2022-12-13T07:08:22.375Z,98973.72
2022-12-13T07:10:55.400Z,98976.53
2022-12-13T07:13:27.084Z,98984.78
2022-12-13T07:16:01.032Z,98988.13
2022-12-13T07:18:33.614Z,98998.25
2022-12-13T07:21:09.551Z,98999.00
2022-12-13T07:23:55.421Z,98994.47
2022-12-13T07:26:27.324Z,98992.16
2022-12-13T07:28:59.050Z,98990.19
2022-12-13T07:31:30.877Z,98986.59
2022-12-13T07:34:02.724Z,98973.53
2022-12-13T07:36:34.362Z,98977.22
2022-12-13T07:39:05.985Z,98965.00
2022-12-13T07:41:37.736Z,98955.53
2022-12-13T07:44:10.917Z,98957.50
2022-12-13T07:46:42.624Z,98955.81
2022-12-13T07:49:14.347Z,98958.25
2022-12-13T07:51:45.931Z,98962.06
2022-12-13T07:54:17.950Z,98963.97
2022-12-13T07:56:49.490Z,98968.53
2022-12-13T07:59:28.520Z,98959.09
2022-12-13T08:02:01.736Z,98951.78
2022-12-13T08:04:38.030Z,98957.72
2022-12-13T08:07:10.618Z,98955.72
2022-12-13T08:09:42.211Z,98954.34
2022-12-13T08:12:13.885Z,98959.19
2022-12-13T08:14:55.246Z,98955.19
2022-12-13T08:17:26.913Z,98954.38
2022-12-13T08:19:58.534Z,98959.19
2022-12-13T08:22:30.187Z,98949.50
2022-12-13T08:25:08.042Z,98953.28
2022-12-13T08:27:43.035Z,98965.38
2022-12-13T08:30:20.480Z,98964.41
2022-12-13T08:32:56.005Z,98966.13
2022-12-13T08:35:33.694Z,98964.63
2022-12-13T08:38:05.488Z,98961.81
2022-12-13T08:40:37.242Z,98963.81
2022-12-13T08:43:09.027Z,98966.06
2022-12-13T08:45:40.676Z,98959.59
2022-12-13T08:48:12.769Z,98960.56
2022-12-13T08:50:44.342Z,98959.56
2022-12-13T08:53:28.594Z,98962.03
2022-12-13T08:56:03.300Z,98964.00
2022-12-13T08:58:34.975Z,98969.28
2022-12-13T09:01:07.970Z,98972.31
2022-12-13T09:03:39.681Z,98969.03
2022-12-13T09:06:14.379Z,98977.66
2022-12-13T09:08:51.735Z,98979.94
2022-12-13T09:11:34.837Z,98985.56
2022-12-13T09:14:14.153Z,98973.94
2022-12-13T09:16:50.598Z,98975.97
2022-12-13T09:19:26.704Z,98981.94
2022-12-13T09:22:02.736Z,98980.75
2022-12-13T09:24:35.843Z,98978.31
2022-12-13T09:27:10.344Z,98978.22
2022-12-13T09:29:58.818Z,98974.22
2022-12-13T09:32:32.055Z,98979.53
2022-12-13T09:35:06.841Z,98985.19
2022-12-13T09:37:44.107Z,98979.84
2022-12-13T09:40:26.277Z,98982.81
2022-12-13T09:43:12.325Z,98979.28
2022-12-13T09:45:50.875Z,98975.53
2022-12-13T09:48:23.825Z,98975.28
2022-12-13T09:51:16.693Z,98974.59
2022-12-13T09:53:50.691Z,98967.53
2022-12-13T09:56:23.925Z,98958.59
2022-12-13T09:58:56.966Z,98962.59
2022-12-13T10:01:28.705Z,98956.38
2022-12-13T10:04:01.380Z,98952.03
2022-12-13T10:06:34.696Z,98941.94
2022-12-13T10:09:12.251Z,98957.16
2022-12-13T10:11:51.386Z,98951.66
2022-12-13T10:14:31.443Z,98947.84
2022-12-13T10:17:07.488Z,98944.31
2022-12-13T10:19:43.317Z,98946.44
2022-12-13T10:22:17.333Z,98941.47
2022-12-13T10:24:52.197Z,98925.97
2022-12-13T10:27:33.113Z,98925.53
2022-12-13T10:30:28.732Z,98932.34
2022-12-13T10:33:03.740Z,98928.56
2022-12-13T10:35:40.908Z,98927.13
2022-12-13T10:38:18.544Z,98924.88
2022-12-13T10:40:50.228Z,98924.31
2022-12-13T10:43:27.796Z,98931.28
2022-12-13T10:46:03.007Z,98922.44
2022-12-13T10:48:40.190Z,98920.00
2022-12-13T10:51:14.418Z,98920.00
2022-12-13T10:53:49.949Z,98928.00
2022-12-13T10:56:24.130Z,98933.31
2022-12-13T10:59:24.633Z,98929.47
2022-12-13T11:01:56.382Z,98932.53
2022-12-13T11:04:29.923Z,98933.28
2022-12-13T11:07:28.113Z,98934.44
2022-12-13T11:10:41.555Z,98938.66
2022-12-13T11:13:43.844Z,98943.78
2022-12-13T11:16:26.102Z,98935.47
2022-12-13T11:19:02.593Z,98931.22
2022-12-13T11:21:37.774Z,98932.94
2022-12-13T11:24:16.849Z,98932.84
2022-12-13T11:27:03.071Z,98931.56
2022-12-13T11:29:58.893Z,98921.69
2022-12-13T11:32:33.116Z,98931.34
2022-12-13T11:35:28.060Z,98921.94
2022-12-13T11:38:11.243Z,98915.19
2022-12-13T11:40:53.043Z,98911.97
2022-12-13T11:43:58.309Z,98912.72
2022-12-13T11:46:40.448Z,98909.50
2022-12-13T11:49:40.934Z,98910.94
2022-12-13T11:52:23.631Z,98921.03
2022-12-13T11:55:03.775Z,98921.34
2022-12-13T11:57:41.640Z,98913.72
2022-12-13T12:00:33.631Z,98915.88
2022-12-13T12:03:09.297Z,98922.75
2022-12-13T12:05:47.020Z,98921.91
2022-12-13T12:08:32.388Z,98919.22
2022-12-13T12:11:10.816Z,98920.84
2022-12-13T12:14:13.070Z,98913.66
2022-12-13T12:16:53.958Z,98913.28
2022-12-13T12:19:31.668Z,98902.47
2022-12-13T12:22:32.386Z,98916.25
2022-12-13T12:25:38.177Z,98911.44
2022-12-13T12:28:44.571Z,98911.91
2022-12-13T12:31:30.118Z,98904.72
2022-12-13T12:34:40.457Z,98902.59
2022-12-13T12:37:47.774Z,98896.81
2022-12-13T12:41:15.687Z,98904.19
2022-12-13T12:44:06.582Z,98903.94
2022-12-13T12:49:41.040Z,98899.09
2022-12-13T12:52:50.600Z,98894.38
2022-12-13T12:55:51.556Z,98883.72
2022-12-13T12:58:44.919Z,98884.31
2022-12-13T13:01:54.083Z,98891.44
2022-12-13T13:04:36.330Z,98891.94
2022-12-13T13:07:22.527Z,98888.72
2022-12-13T13:09:57.292Z,98895.59
2022-12-13T13:12:31.042Z,98888.50
2022-12-13T13:15:33.608Z,98897.16
2022-12-13T13:18:43.768Z,98900.75
2022-12-13T13:21:24.362Z,98899.19
2022-12-13T13:24:08.500Z,98906.69
2022-12-13T13:26:46.578Z,98909.28
2022-12-13T13:29:27.479Z,98918.09
2022-12-13T13:32:12.378Z,98914.56
2022-12-13T13:35:32.537Z,98917.88
2022-12-13T13:38:22.860Z,98914.94
2022-12-13T13:40:55.164Z,98924.94
2022-12-13T13:43:32.580Z,98924.50
2022-12-13T13:46:13.104Z,98925.66
2022-12-13T13:49:05.369Z,98929.56
2022-12-13T13:52:08.573Z,98930.47
2022-12-13T13:55:05.726Z,98927.69
2022-12-13T13:58:12.991Z,98937.28
2022-12-13T14:00:56.815Z,98940.72
2022-12-13T14:03:48.673Z,98934.44
2022-12-13T14:06:46.649Z,98944.06
2022-12-13T14:09:45.827Z,98950.31
2022-12-13T14:12:42.806Z,98955.03
2022-12-13T14:15:59.613Z,98956.13
2022-12-13T14:19:11.085Z,98952.63
2022-12-13T14:22:02.839Z,98952.41
2022-12-13T14:24:59.529Z,98944.00
2022-12-13T14:27:46.895Z,98950.28
2022-12-13T14:30:28.202Z,98946.78
2022-12-13T14:33:03.619Z,98948.81
2022-12-13T14:35:35.674Z,98938.09
2022-12-13T14:38:25.942Z,98937.97
2022-12-13T14:41:08.515Z,98945.41
2022-12-13T14:43:43.228Z,98945.00
2022-12-13T14:46:20.406Z,98941.69
2022-12-13T14:48:54.034Z,98945.81
2022-12-13T14:51:32.816Z,98945.13
2022-12-13T14:54:15.554Z,98943.47
2022-12-13T14:57:02.535Z,98938.22
2022-12-13T14:59:50.402Z,98929.84
2022-12-13T15:02:31.272Z,98919.88
2022-12-13T15:05:05.707Z,98921.06
2022-12-13T15:07:44.849Z,98921.22
2022-12-13T15:10:25.374Z,98926.38
2022-12-13T15:13:00.343Z,98931.59
2022-12-13T15:15:36.985Z,98930.19
2022-12-13T15:18:24.534Z,98924.53
2022-12-13T15:21:02.540Z,98929.81
2022-12-13T15:23:56.077Z,98928.97
2022-12-13T15:26:34.422Z,98939.09
2022-12-13T15:29:14.825Z,98939.78
2022-12-13T15:31:49.106Z,98943.50
2022-12-13T15:34:31.111Z,98945.06
2022-12-13T15:37:29.413Z,98932.94
2022-12-13T15:40:08.767Z,98940.00
2022-12-13T15:42:47.138Z,98931.22
2022-12-13T15:45:22.889Z,98931.22
2022-12-13T15:47:55.139Z,98932.75
2022-12-13T15:50:45.519Z,98938.03
2022-12-13T15:53:30.654Z,98954.41
2022-12-13T15:56:09.491Z,98948.47
2022-12-13T15:58:41.404Z,98962.97
2022-12-13T16:01:26.082Z,98966.25
2022-12-13T16:04:03.663Z,98960.38
2022-12-13T16:06:35.308Z,98954.31
2022-12-13T16:09:18.608Z,98947.91
2022-12-13T16:12:01.917Z,98946.25
2022-12-13T16:14:49.030Z,98952.47
2022-12-13T16:17:27.434Z,98949.41
2022-12-13T16:20:02.066Z,98953.66
2022-12-13T16:22:35.191Z,98944.19
2022-12-13T16:25:07.402Z,98960.38
2022-12-13T16:27:39.585Z,98945.94
2022-12-13T16:30:22.612Z,98948.50
2022-12-13T16:33:18.078Z,98949.66
2022-12-13T16:35:49.295Z,98947.16
2022-12-13T16:38:26.683Z,98939.00
2022-12-13T16:41:08.808Z,98933.13
2022-12-13T16:44:03.319Z,98928.19
2022-12-13T16:47:12.236Z,98921.75
2022-12-13T16:50:03.959Z,98925.31
2022-12-13T16:52:39.489Z,98923.41
2022-12-13T16:55:11.112Z,98927.72
2022-12-13T16:57:42.700Z,98922.56
2022-12-13T17:00:14.781Z,98920.06
2022-12-13T17:02:53.016Z,98927.81
2022-12-13T17:05:26.630Z,98927.03
2022-12-13T17:07:58.206Z,98918.59
2022-12-13T17:10:31.075Z,98917.75
2022-12-13T17:13:05.748Z,98919.66
2022-12-13T17:15:38.131Z,98935.09
2022-12-13T17:18:10.154Z,98934.44
2022-12-13T17:20:45.205Z,98939.50
2022-12-13T17:23:19.280Z,98946.41
2022-12-13T17:25:58.232Z,98940.34
2022-12-13T17:28:30.799Z,98943.97
2022-12-13T17:31:14.551Z,98940.66
2022-12-13T17:33:46.945Z,98940.16
2022-12-13T17:36:21.770Z,98942.88
2022-12-13T17:38:53.429Z,98935.31
2022-12-13T17:41:25.116Z,98932.06
2022-12-13T17:44:00.776Z,98946.59
2022-12-13T17:46:37.035Z,98935.47
2022-12-13T17:49:08.713Z,98932.16
2022-12-13T17:51:40.826Z,98931.41
2022-12-13T17:54:15.042Z,98928.47
2022-12-13T17:56:47.277Z,98933.53
2022-12-13T17:59:19.400Z,98937.84
2022-12-13T18:01:51.365Z,98934.34
2022-12-13T18:04:23.600Z,98934.53
2022-12-13T18:07:00.330Z,98928.47
2022-12-13T18:09:32.451Z,98927.53
2022-12-13T18:12:04.273Z,98927.84
2022-12-13T18:14:36.767Z,98934.00
2022-12-13T18:17:08.412Z,98935.75
2022-12-13T18:19:40.235Z,98945.03
2022-12-13T18:22:11.919Z,98941.66
2022-12-13T18:24:43.563Z,98935.69
2022-12-13T18:27:15.159Z,98934.00
2022-12-13T18:29:55.196Z,98934.97
2022-12-13T18:32:27.565Z,98937.78
2022-12-13T18:34:59.411Z,98947.91
2022-12-13T18:37:34.221Z,98946.28
2022-12-13T18:40:06.527Z,98944.53
2022-12-13T18:42:38.187Z,98953.47
2022-12-13T18:45:13.381Z,98945.06
2022-12-13T18:47:45.099Z,98942.72
2022-12-13T18:50:16.894Z,98932.59
2022-12-13T18:52:51.497Z,98925.38
2022-12-13T18:55:25.316Z,98924.53
2022-12-13T18:57:59.379Z,98924.72
2022-12-13T19:00:32.919Z,98924.19
2022-12-13T19:03:07.677Z,98918.28
2022-12-13T19:05:59.765Z,98923.66
2022-12-13T19:08:32.146Z,98918.81
2022-12-13T19:11:04.222Z,98912.00
2022-12-13T19:13:36.038Z,98921.59
2022-12-13T19:16:20.933Z,98925.16
2022-12-13T19:18:55.856Z,98920.84
2022-12-13T19:21:32.519Z,98914.13
2022-12-13T19:24:04.985Z,98911.88
2022-12-13T19:26:38.426Z,98910.94
2022-12-13T19:29:10.168Z,98911.63
2022-12-13T19:31:47.742Z,98910.72
2022-12-13T19:34:22.191Z,98910.63
2022-12-13T19:37:06.297Z,98910.13
2022-12-13T19:39:38.746Z,98919.47
2022-12-13T19:42:10.866Z,98912.69
2022-12-13T19:44:42.633Z,98918.91
2022-12-13T19:47:14.347Z,98921.72
2022-12-13T19:49:48.159Z,98919.97
2022-12-13T19:52:21.196Z,98922.16
2022-12-13T19:54:53.122Z,98926.81
2022-12-13T19:57:25.426Z,98930.56
2022-12-13T19:59:59.664Z,98935.03
2022-12-13T20:02:45.166Z,98931.50
2022-12-13T20:05:17.671Z,98931.88
2022-12-13T20:07:51.232Z,98922.28
2022-12-13T20:10:22.825Z,98928.88
2022-12-13T20:12:54.483Z,98922.00
2022-12-13T20:18:24.679Z,98931.72
2022-12-13T20:21:15.061Z,98926.75
2022-12-13T20:23:49.282Z,98929.31
2022-12-13T20:26:28.004Z,98927.72
2022-12-13T20:29:01.723Z,98925.69
2022-12-13T20:31:35.164Z,98925.28
2022-12-13T20:34:10.212Z,98931.84
2022-12-13T20:36:46.412Z,98924.88
2022-12-13T20:39:18.316Z,98911.16
2022-12-13T20:41:50.062Z,98906.84
2022-12-13T20:44:21.947Z,98900.66
2022-12-13T20:46:53.867Z,98905.88
2022-12-13T20:49:25.740Z,98902.59
2022-12-13T20:52:00.605Z,98896.44
2022-12-13T20:54:32.520Z,98894.16
2022-12-13T20:57:04.122Z,98890.00
2022-12-13T20:59:36.020Z,98891.72
2022-12-13T21:02:07.682Z,98894.28
2022-12-13T21:04:40.418Z,98894.78
2022-12-13T21:07:15.322Z,98892.00
2022-12-13T21:09:47.149Z,98890.75
2022-12-13T21:12:18.761Z,98887.19
2022-12-13T21:14:52.570Z,98874.94
2022-12-13T21:17:28.768Z,98869.81
2022-12-13T21:20:00.355Z,98876.38
2022-12-13T21:22:31.974Z,98878.06
2022-12-13T21:25:04.949Z,98880.63
2022-12-13T21:27:36.540Z,98871.94
2022-12-13T21:30:08.826Z,98864.19
2022-12-13T21:32:40.475Z,98870.88
2022-12-13T21:35:18.175Z,98866.75
2022-12-13T21:37:52.590Z,98866.94
2022-12-13T21:40:29.384Z,98872.97
2022-12-13T21:43:01.090Z,98863.16
2022-12-13T21:45:57.781Z,98846.84
2022-12-13T21:48:29.475Z,98856.50
2022-12-13T21:51:01.841Z,98854.06
2022-12-13T21:53:35.008Z,98856.84
2022-12-13T21:56:26.658Z,98857.91
2022-12-13T21:59:19.392Z,98863.94
2022-12-13T22:02:12.367Z,98859.94
2022-12-13T22:04:55.620Z,98866.25
2022-12-13T22:07:37.832Z,98858.00
2022-12-13T22:10:10.073Z,98858.44
2022-12-13T22:12:43.251Z,98856.53
2022-12-13T22:15:16.159Z,98849.53
2022-12-13T22:17:49.740Z,98847.66
2022-12-13T22:20:22.173Z,98852.03
2022-12-13T22:22:53.832Z,98840.88
2022-12-13T22:25:28.202Z,98846.00
2022-12-13T22:28:00.381Z,98851.19
2022-12-13T22:30:33.008Z,98849.41
2022-12-13T22:33:04.554Z,98835.69
2022-12-13T22:35:41.225Z,98838.31
2022-12-13T22:38:12.911Z,98828.38
2022-12-13T22:40:45.922Z,98825.22
2022-12-13T22:43:20.531Z,98823.63
2022-12-13T22:45:52.517Z,98816.41
2022-12-13T22:48:25.463Z,98805.31
2022-12-13T22:51:11.350Z,98812.81
2022-12-13T22:53:47.162Z,98810.31
2022-12-13T22:56:23.139Z,98813.72
2022-12-13T22:58:57.211Z,98812.81
2022-12-13T23:01:34.594Z,98815.44
2022-12-13T23:04:07.492Z,98801.88
2022-12-13T23:06:40.348Z,98800.69
2022-12-13T23:09:14.179Z,98800.56
2022-12-13T23:12:04.826Z,98796.94
2022-12-13T23:14:36.478Z,98777.88
2022-12-13T23:17:10.958Z,98780.22
2022-12-13T23:19:52.864Z,98775.81
2022-12-13T23:22:25.957Z,98774.97
2022-12-13T23:24:57.769Z,98772.19
2022-12-13T23:27:29.672Z,98770.69
2022-12-13T23:30:02.028Z,98771.63
2022-12-13T23:32:34.751Z,98766.84
2022-12-13T23:35:08.318Z,98767.91
2022-12-13T23:37:40.044Z,98768.75
2022-12-13T23:40:12.052Z,98760.66
2022-12-13T23:42:43.714Z,98761.22
2022-12-13T23:45:15.377Z,98753.66
2022-12-13T23:47:47.104Z,98751.84
2022-12-13T23:50:18.794Z,98751.84
2022-12-13T23:52:50.412Z,98758.38
2022-12-13T23:55:22.127Z,98758.19
2022-12-13T23:57:53.797Z,98754.53
